sensor_id;sensor_type;location;lat;lon;timestamp;temperature;humidity
78315;SHT31;68596;52.080;4.662;2024-02-26T00:01:18;7.52;74.79
78315;SHT31;68596;52.080;4.662;2024-02-26T00:04:02;7.52;74.66
78315;SHT31;68596;52.080;4.662;2024-02-26T00:06:46;7.56;74.71
78315;SHT31;68596;52.080;4.662;2024-02-26T00:09:31;7.59;74.42
78315;SHT31;68596;52.080;4.662;2024-02-26T00:12:16;7.53;74.58
78315;SHT31;68596;52.080;4.662;2024-02-26T00:15:00;7.53;74.43
78315;SHT31;68596;52.080;4.662;2024-02-26T00:17:44;7.52;74.33
78315;SHT31;68596;52.080;4.662;2024-02-26T00:20:28;7.46;74.48
78315;SHT31;68596;52.080;4.662;2024-02-26T00:23:15;7.46;74.57
78315;SHT31;68596;52.080;4.662;2024-02-26T00:25:59;7.49;74.38
78315;SHT31;68596;52.080;4.662;2024-02-26T00:28:43;7.52;74.58
78315;SHT31;68596;52.080;4.662;2024-02-26T00:31:28;7.49;74.42
78315;SHT31;68596;52.080;4.662;2024-02-26T00:34:12;7.49;74.50
78315;SHT31;68596;52.080;4.662;2024-02-26T00:36:56;7.53;74.31
78315;SHT31;68596;52.080;4.662;2024-02-26T00:39:41;7.52;74.27
78315;SHT31;68596;52.080;4.662;2024-02-26T00:42:25;7.48;74.39
78315;SHT31;68596;52.080;4.662;2024-02-26T00:45:09;7.46;74.24
78315;SHT31;68596;52.080;4.662;2024-02-26T00:47:53;7.45;74.18
78315;SHT31;68596;52.080;4.662;2024-02-26T00:50:38;7.38;74.43
78315;SHT31;68596;52.080;4.662;2024-02-26T00:53:22;7.35;74.74
78315;SHT31;68596;52.080;4.662;2024-02-26T00:56:06;7.33;74.66
78315;SHT31;68596;52.080;4.662;2024-02-26T00:58:50;7.35;74.73
78315;SHT31;68596;52.080;4.662;2024-02-26T01:01:34;7.38;74.78
78315;SHT31;68596;52.080;4.662;2024-02-26T01:04:19;7.39;74.83
78315;SHT31;68596;52.080;4.662;2024-02-26T01:07:03;7.40;74.43
78315;SHT31;68596;52.080;4.662;2024-02-26T01:09:47;7.38;74.63
78315;SHT31;68596;52.080;4.662;2024-02-26T01:12:32;7.38;74.79
78315;SHT31;68596;52.080;4.662;2024-02-26T01:15:17;7.35;74.90
78315;SHT31;68596;52.080;4.662;2024-02-26T01:18:03;7.36;74.96
78315;SHT31;68596;52.080;4.662;2024-02-26T01:20:47;7.39;74.90
78315;SHT31;68596;52.080;4.662;2024-02-26T01:23:31;7.40;74.74
78315;SHT31;68596;52.080;4.662;2024-02-26T01:26:15;7.45;74.88
78315;SHT31;68596;52.080;4.662;2024-02-26T01:28:59;7.50;74.49
78315;SHT31;68596;52.080;4.662;2024-02-26T01:31:44;7.48;74.24
78315;SHT31;68596;52.080;4.662;2024-02-26T01:34:29;7.40;74.32
78315;SHT31;68596;52.080;4.662;2024-02-26T01:37:13;7.36;74.88
78315;SHT31;68596;52.080;4.662;2024-02-26T01:39:57;7.40;74.40
78315;SHT31;68596;52.080;4.662;2024-02-26T01:42:41;7.36;74.58
78315;SHT31;68596;52.080;4.662;2024-02-26T01:45:25;7.35;74.86
78315;SHT31;68596;52.080;4.662;2024-02-26T01:48:09;7.40;74.49
78315;SHT31;68596;52.080;4.662;2024-02-26T01:50:55;7.39;74.64
78315;SHT31;68596;52.080;4.662;2024-02-26T01:53:40;7.42;74.22
78315;SHT31;68596;52.080;4.662;2024-02-26T01:56:26;7.42;74.38
78315;SHT31;68596;52.080;4.662;2024-02-26T01:59:14;7.40;74.27
78315;SHT31;68596;52.080;4.662;2024-02-26T02:02:01;7.40;74.45
78315;SHT31;68596;52.080;4.662;2024-02-26T02:04:47;7.42;73.90
78315;SHT31;68596;52.080;4.662;2024-02-26T02:07:32;7.36;74.33
78315;SHT31;68596;52.080;4.662;2024-02-26T02:10:16;7.45;74.02
78315;SHT31;68596;52.080;4.662;2024-02-26T02:13:02;7.46;73.79
78315;SHT31;68596;52.080;4.662;2024-02-26T02:15:46;7.45;74.08
78315;SHT31;68596;52.080;4.662;2024-02-26T02:18:30;7.45;73.82
78315;SHT31;68596;52.080;4.662;2024-02-26T02:21:14;7.45;73.94
78315;SHT31;68596;52.080;4.662;2024-02-26T02:23:58;7.42;73.97
78315;SHT31;68596;52.080;4.662;2024-02-26T02:26:43;7.42;74.13
78315;SHT31;68596;52.080;4.662;2024-02-26T02:29:27;7.49;73.94
78315;SHT31;68596;52.080;4.662;2024-02-26T02:32:13;7.52;73.84
78315;SHT31;68596;52.080;4.662;2024-02-26T02:34:58;7.49;73.77
78315;SHT31;68596;52.080;4.662;2024-02-26T02:37:43;7.48;73.46
78315;SHT31;68596;52.080;4.662;2024-02-26T02:40:27;7.40;73.71
78315;SHT31;68596;52.080;4.662;2024-02-26T02:43:11;7.36;73.78
78315;SHT31;68596;52.080;4.662;2024-02-26T02:45:55;7.35;73.83
78315;SHT31;68596;52.080;4.662;2024-02-26T02:48:41;7.38;73.68
78315;SHT31;68596;52.080;4.662;2024-02-26T02:51:25;7.36;73.43
78315;SHT31;68596;52.080;4.662;2024-02-26T02:54:09;7.38;73.64
78315;SHT31;68596;52.080;4.662;2024-02-26T02:56:53;7.40;73.15
78315;SHT31;68596;52.080;4.662;2024-02-26T02:59:39;7.38;73.19
78315;SHT31;68596;52.080;4.662;2024-02-26T03:02:23;7.38;73.27
78315;SHT31;68596;52.080;4.662;2024-02-26T03:05:09;7.40;73.34
78315;SHT31;68596;52.080;4.662;2024-02-26T03:07:53;7.43;73.22
78315;SHT31;68596;52.080;4.662;2024-02-26T03:10:37;7.42;73.18
78315;SHT31;68596;52.080;4.662;2024-02-26T03:13:21;7.38;73.36
78315;SHT31;68596;52.080;4.662;2024-02-26T03:16:05;7.33;73.77
78315;SHT31;68596;52.080;4.662;2024-02-26T03:18:49;7.33;73.63
78315;SHT31;68596;52.080;4.662;2024-02-26T03:21:33;7.36;73.65
78315;SHT31;68596;52.080;4.662;2024-02-26T03:24:18;7.30;73.44
78315;SHT31;68596;52.080;4.662;2024-02-26T03:27:02;7.32;73.49
78315;SHT31;68596;52.080;4.662;2024-02-26T03:29:46;7.26;73.50
78315;SHT31;68596;52.080;4.662;2024-02-26T03:32:31;7.25;73.49
78315;SHT31;68596;52.080;4.662;2024-02-26T03:35:15;7.25;73.86
78315;SHT31;68596;52.080;4.662;2024-02-26T03:38:01;7.20;73.90
78315;SHT31;68596;52.080;4.662;2024-02-26T03:40:46;7.16;74.20
78315;SHT31;68596;52.080;4.662;2024-02-26T03:43:30;7.23;73.70
78315;SHT31;68596;52.080;4.662;2024-02-26T03:46:15;7.19;74.00
78315;SHT31;68596;52.080;4.662;2024-02-26T03:49:00;7.18;73.69
78315;SHT31;68596;52.080;4.662;2024-02-26T03:51:44;7.18;74.23
78315;SHT31;68596;52.080;4.662;2024-02-26T03:54:29;7.19;74.07
78315;SHT31;68596;52.080;4.662;2024-02-26T03:57:13;7.16;74.22
78315;SHT31;68596;52.080;4.662;2024-02-26T03:59:57;7.18;74.21
78315;SHT31;68596;52.080;4.662;2024-02-26T04:02:41;7.20;74.07
78315;SHT31;68596;52.080;4.662;2024-02-26T04:05:25;7.19;74.13
78315;SHT31;68596;52.080;4.662;2024-02-26T04:08:09;7.16;74.39
78315;SHT31;68596;52.080;4.662;2024-02-26T04:10:54;7.14;74.42
78315;SHT31;68596;52.080;4.662;2024-02-26T04:13:38;7.12;74.48
78315;SHT31;68596;52.080;4.662;2024-02-26T04:16:22;7.15;74.52
78315;SHT31;68596;52.080;4.662;2024-02-26T04:19:06;7.16;74.40
78315;SHT31;68596;52.080;4.662;2024-02-26T04:21:50;7.12;74.40
78315;SHT31;68596;52.080;4.662;2024-02-26T04:24:36;7.14;74.32
78315;SHT31;68596;52.080;4.662;2024-02-26T04:27:20;7.14;74.48
78315;SHT31;68596;52.080;4.662;2024-02-26T04:30:05;7.14;74.51
78315;SHT31;68596;52.080;4.662;2024-02-26T04:32:50;7.16;74.32
78315;SHT31;68596;52.080;4.662;2024-02-26T04:35:34;7.18;74.11
78315;SHT31;68596;52.080;4.662;2024-02-26T04:38:21;7.16;74.23
78315;SHT31;68596;52.080;4.662;2024-02-26T04:41:06;7.20;74.12
78315;SHT31;68596;52.080;4.662;2024-02-26T04:43:50;7.20;74.12
78315;SHT31;68596;52.080;4.662;2024-02-26T04:46:34;7.22;74.10
78315;SHT31;68596;52.080;4.662;2024-02-26T04:49:18;7.20;74.03
78315;SHT31;68596;52.080;4.662;2024-02-26T04:52:03;7.18;74.47
78315;SHT31;68596;52.080;4.662;2024-02-26T04:54:47;7.19;74.41
78315;SHT31;68596;52.080;4.662;2024-02-26T04:57:31;7.22;74.25
78315;SHT31;68596;52.080;4.662;2024-02-26T05:00:15;7.23;74.43
78315;SHT31;68596;52.080;4.662;2024-02-26T05:02:59;7.26;74.56
78315;SHT31;68596;52.080;4.662;2024-02-26T05:05:44;7.25;74.74
78315;SHT31;68596;52.080;4.662;2024-02-26T05:08:28;7.25;74.89
78315;SHT31;68596;52.080;4.662;2024-02-26T05:11:15;7.36;74.53
78315;SHT31;68596;52.080;4.662;2024-02-26T05:13:59;7.33;74.40
78315;SHT31;68596;52.080;4.662;2024-02-26T05:16:45;7.30;74.41
78315;SHT31;68596;52.080;4.662;2024-02-26T05:19:29;7.22;74.67
78315;SHT31;68596;52.080;4.662;2024-02-26T05:22:13;7.26;74.92
78315;SHT31;68596;52.080;4.662;2024-02-26T05:24:57;7.29;74.35
78315;SHT31;68596;52.080;4.662;2024-02-26T05:27:42;7.20;74.60
78315;SHT31;68596;52.080;4.662;2024-02-26T05:30:27;7.22;74.81
78315;SHT31;68596;52.080;4.662;2024-02-26T05:33:12;7.19;74.55
78315;SHT31;68596;52.080;4.662;2024-02-26T05:35:56;7.15;75.06
78315;SHT31;68596;52.080;4.662;2024-02-26T05:38:40;7.16;74.63
78315;SHT31;68596;52.080;4.662;2024-02-26T05:41:24;7.15;75.20
78315;SHT31;68596;52.080;4.662;2024-02-26T05:44:11;7.20;74.74
78315;SHT31;68596;52.080;4.662;2024-02-26T05:46:55;7.19;74.55
78315;SHT31;68596;52.080;4.662;2024-02-26T05:49:40;7.11;74.97
78315;SHT31;68596;52.080;4.662;2024-02-26T05:52:24;7.12;74.98
78315;SHT31;68596;52.080;4.662;2024-02-26T05:55:08;7.12;74.88
78315;SHT31;68596;52.080;4.662;2024-02-26T05:57:53;7.07;75.21
78315;SHT31;68596;52.080;4.662;2024-02-26T06:00:37;7.07;75.31
78315;SHT31;68596;52.080;4.662;2024-02-26T06:03:21;7.04;75.43
78315;SHT31;68596;52.080;4.662;2024-02-26T06:06:05;7.04;75.13
78315;SHT31;68596;52.080;4.662;2024-02-26T06:08:49;7.05;75.37
78315;SHT31;68596;52.080;4.662;2024-02-26T06:11:33;7.02;75.41
78315;SHT31;68596;52.080;4.662;2024-02-26T06:14:17;6.98;75.70
78315;SHT31;68596;52.080;4.662;2024-02-26T06:17:02;7.04;75.63
78315;SHT31;68596;52.080;4.662;2024-02-26T06:19:46;7.01;75.71
78315;SHT31;68596;52.080;4.662;2024-02-26T06:22:30;7.01;75.81
78315;SHT31;68596;52.080;4.662;2024-02-26T06:25:14;7.01;75.96
78315;SHT31;68596;52.080;4.662;2024-02-26T06:27:58;7.04;75.85
78315;SHT31;68596;52.080;4.662;2024-02-26T06:30:43;7.05;75.86
78315;SHT31;68596;52.080;4.662;2024-02-26T06:33:27;7.12;75.80
78315;SHT31;68596;52.080;4.662;2024-02-26T06:36:11;7.08;75.84
78315;SHT31;68596;52.080;4.662;2024-02-26T06:38:55;7.09;75.88
78315;SHT31;68596;52.080;4.662;2024-02-26T06:41:39;7.08;75.92
78315;SHT31;68596;52.080;4.662;2024-02-26T06:44:23;7.11;75.85
78315;SHT31;68596;52.080;4.662;2024-02-26T06:47:09;7.09;75.99
78315;SHT31;68596;52.080;4.662;2024-02-26T06:49:53;7.04;76.03
78315;SHT31;68596;52.080;4.662;2024-02-26T06:52:37;7.04;76.08
78315;SHT31;68596;52.080;4.662;2024-02-26T06:55:21;6.99;76.27
78315;SHT31;68596;52.080;4.662;2024-02-26T06:58:06;7.04;76.31
78315;SHT31;68596;52.080;4.662;2024-02-26T07:00:50;7.08;76.20
78315;SHT31;68596;52.080;4.662;2024-02-26T07:03:34;7.09;76.29
78315;SHT31;68596;52.080;4.662;2024-02-26T07:06:18;7.12;76.22
78315;SHT31;68596;52.080;4.662;2024-02-26T07:09:03;7.15;76.10
78315;SHT31;68596;52.080;4.662;2024-02-26T07:11:46;7.16;76.02
78315;SHT31;68596;52.080;4.662;2024-02-26T07:14:30;7.15;75.94
78315;SHT31;68596;52.080;4.662;2024-02-26T07:17:17;7.09;76.06
78315;SHT31;68596;52.080;4.662;2024-02-26T07:20:01;7.08;76.32
78315;SHT31;68596;52.080;4.662;2024-02-26T07:22:48;7.08;76.29
78315;SHT31;68596;52.080;4.662;2024-02-26T07:25:33;7.05;76.33
78315;SHT31;68596;52.080;4.662;2024-02-26T07:28:17;6.99;76.51
78315;SHT31;68596;52.080;4.662;2024-02-26T07:31:01;6.97;76.67
78315;SHT31;68596;52.080;4.662;2024-02-26T07:33:45;6.99;76.53
78315;SHT31;68596;52.080;4.662;2024-02-26T07:36:29;7.04;76.39
78315;SHT31;68596;52.080;4.662;2024-02-26T07:39:13;7.02;76.36
78315;SHT31;68596;52.080;4.662;2024-02-26T07:41:57;7.02;76.54
78315;SHT31;68596;52.080;4.662;2024-02-26T07:44:41;7.05;76.28
78315;SHT31;68596;52.080;4.662;2024-02-26T07:47:27;7.02;76.29
78315;SHT31;68596;52.080;4.662;2024-02-26T07:50:11;7.01;76.33
78315;SHT31;68596;52.080;4.662;2024-02-26T07:52:55;6.99;76.30
78315;SHT31;68596;52.080;4.662;2024-02-26T07:55:39;6.91;76.27
78315;SHT31;68596;52.080;4.662;2024-02-26T07:58:23;6.81;76.66
78315;SHT31;68596;52.080;4.662;2024-02-26T08:01:07;6.83;76.58
78315;SHT31;68596;52.080;4.662;2024-02-26T08:03:53;6.78;76.52
78315;SHT31;68596;52.080;4.662;2024-02-26T08:06:37;6.81;76.78
78315;SHT31;68596;52.080;4.662;2024-02-26T08:09:21;6.81;76.50
78315;SHT31;68596;52.080;4.662;2024-02-26T08:12:05;6.78;76.37
78315;SHT31;68596;52.080;4.662;2024-02-26T08:14:50;6.73;76.73
78315;SHT31;68596;52.080;4.662;2024-02-26T08:17:34;6.73;76.67
78315;SHT31;68596;52.080;4.662;2024-02-26T08:20:18;6.77;76.39
78315;SHT31;68596;52.080;4.662;2024-02-26T08:23:03;6.77;76.62
78315;SHT31;68596;52.080;4.662;2024-02-26T08:25:48;6.81;76.47
78315;SHT31;68596;52.080;4.662;2024-02-26T08:28:32;6.78;76.61
78315;SHT31;68596;52.080;4.662;2024-02-26T08:31:17;6.87;76.65
78315;SHT31;68596;52.080;4.662;2024-02-26T08:34:01;6.89;76.76
78315;SHT31;68596;52.080;4.662;2024-02-26T08:36:47;6.92;76.59
78315;SHT31;68596;52.080;4.662;2024-02-26T08:39:37;6.92;76.27
78315;SHT31;68596;52.080;4.662;2024-02-26T08:42:22;6.92;76.44
78315;SHT31;68596;52.080;4.662;2024-02-26T08:45:08;6.95;76.25
78315;SHT31;68596;52.080;4.662;2024-02-26T08:47:52;6.94;76.27
78315;SHT31;68596;52.080;4.662;2024-02-26T08:50:36;6.91;76.20
78315;SHT31;68596;52.080;4.662;2024-02-26T08:53:21;6.94;76.23
78315;SHT31;68596;52.080;4.662;2024-02-26T08:56:05;6.92;75.95
78315;SHT31;68596;52.080;4.662;2024-02-26T08:58:50;6.94;75.97
78315;SHT31;68596;52.080;4.662;2024-02-26T09:01:37;6.99;75.68
78315;SHT31;68596;52.080;4.662;2024-02-26T09:04:21;6.89;76.15
78315;SHT31;68596;52.080;4.662;2024-02-26T09:07:05;6.95;76.36
78315;SHT31;68596;52.080;4.662;2024-02-26T09:09:49;6.95;76.17
78315;SHT31;68596;52.080;4.662;2024-02-26T09:12:35;7.02;76.31
78315;SHT31;68596;52.080;4.662;2024-02-26T09:15:19;7.08;76.42
78315;SHT31;68596;52.080;4.662;2024-02-26T09:18:04;7.14;76.20
78315;SHT31;68596;52.080;4.662;2024-02-26T09:20:48;7.14;75.93
78315;SHT31;68596;52.080;4.662;2024-02-26T09:23:34;7.07;75.97
78315;SHT31;68596;52.080;4.662;2024-02-26T09:26:18;7.09;76.10
78315;SHT31;68596;52.080;4.662;2024-02-26T09:29:02;7.18;76.03
78315;SHT31;68596;52.080;4.662;2024-02-26T09:31:48;7.22;75.89
78315;SHT31;68596;52.080;4.662;2024-02-26T09:34:32;7.25;75.98
78315;SHT31;68596;52.080;4.662;2024-02-26T09:37:18;7.29;75.83
78315;SHT31;68596;52.080;4.662;2024-02-26T09:40:04;7.33;75.67
78315;SHT31;68596;52.080;4.662;2024-02-26T09:42:54;7.26;75.46
78315;SHT31;68596;52.080;4.662;2024-02-26T09:45:42;7.23;75.81
78315;SHT31;68596;52.080;4.662;2024-02-26T09:48:29;7.26;75.96
78315;SHT31;68596;52.080;4.662;2024-02-26T09:51:14;7.25;75.77
78315;SHT31;68596;52.080;4.662;2024-02-26T09:54:00;7.28;75.84
78315;SHT31;68596;52.080;4.662;2024-02-26T09:56:49;7.32;76.05
78315;SHT31;68596;52.080;4.662;2024-02-26T09:59:39;7.35;76.22
78315;SHT31;68596;52.080;4.662;2024-02-26T10:02:25;7.35;75.95
78315;SHT31;68596;52.080;4.662;2024-02-26T10:05:16;7.38;75.88
78315;SHT31;68596;52.080;4.662;2024-02-26T10:08:05;7.42;75.42
78315;SHT31;68596;52.080;4.662;2024-02-26T10:10:50;7.39;75.91
78315;SHT31;68596;52.080;4.662;2024-02-26T10:13:35;7.39;75.61
78315;SHT31;68596;52.080;4.662;2024-02-26T10:16:23;7.39;76.07
78315;SHT31;68596;52.080;4.662;2024-02-26T10:19:07;7.42;76.19
78315;SHT31;68596;52.080;4.662;2024-02-26T10:21:59;7.45;76.44
78315;SHT31;68596;52.080;4.662;2024-02-26T10:24:46;7.42;76.09
78315;SHT31;68596;52.080;4.662;2024-02-26T10:27:31;7.43;76.43
78315;SHT31;68596;52.080;4.662;2024-02-26T10:30:18;7.48;76.45
78315;SHT31;68596;52.080;4.662;2024-02-26T10:33:03;7.42;76.51
78315;SHT31;68596;52.080;4.662;2024-02-26T10:35:47;7.35;76.72
78315;SHT31;68596;52.080;4.662;2024-02-26T10:38:32;7.33;77.17
78315;SHT31;68596;52.080;4.662;2024-02-26T10:41:17;7.30;77.31
78315;SHT31;68596;52.080;4.662;2024-02-26T10:44:01;7.35;77.53
78315;SHT31;68596;52.080;4.662;2024-02-26T10:46:48;7.36;77.56
78315;SHT31;68596;52.080;4.662;2024-02-26T10:49:35;7.35;77.49
78315;SHT31;68596;52.080;4.662;2024-02-26T10:52:20;7.30;77.31
78315;SHT31;68596;52.080;4.662;2024-02-26T10:55:05;7.28;77.87
78315;SHT31;68596;52.080;4.662;2024-02-26T10:57:54;7.30;78.03
78315;SHT31;68596;52.080;4.662;2024-02-26T11:00:40;7.30;77.79
78315;SHT31;68596;52.080;4.662;2024-02-26T11:03:25;7.32;77.93
78315;SHT31;68596;52.080;4.662;2024-02-26T11:06:12;7.30;77.83
78315;SHT31;68596;52.080;4.662;2024-02-26T11:08:59;7.36;77.88
78315;SHT31;68596;52.080;4.662;2024-02-26T11:11:44;7.36;77.97
78315;SHT31;68596;52.080;4.662;2024-02-26T11:14:29;7.36;78.04
78315;SHT31;68596;52.080;4.662;2024-02-26T11:17:15;7.36;77.94
78315;SHT31;68596;52.080;4.662;2024-02-26T11:20:00;7.39;78.04
78315;SHT31;68596;52.080;4.662;2024-02-26T11:22:46;7.36;77.36
78315;SHT31;68596;52.080;4.662;2024-02-26T11:25:31;7.29;77.87
78315;SHT31;68596;52.080;4.662;2024-02-26T11:28:18;7.33;77.62
78315;SHT31;68596;52.080;4.662;2024-02-26T11:31:03;7.32;78.12
78315;SHT31;68596;52.080;4.662;2024-02-26T11:33:49;7.38;77.81
78315;SHT31;68596;52.080;4.662;2024-02-26T11:36:34;7.38;77.49
78315;SHT31;68596;52.080;4.662;2024-02-26T11:39:18;7.38;77.67
78315;SHT31;68596;52.080;4.662;2024-02-26T11:42:07;7.35;77.62
78315;SHT31;68596;52.080;4.662;2024-02-26T11:44:52;7.33;77.54
78315;SHT31;68596;52.080;4.662;2024-02-26T11:47:36;7.32;77.43
78315;SHT31;68596;52.080;4.662;2024-02-26T11:50:39;7.32;77.31
78315;SHT31;68596;52.080;4.662;2024-02-26T11:53:29;7.30;77.36
78315;SHT31;68596;52.080;4.662;2024-02-26T11:59:11;7.36;77.16
78315;SHT31;68596;52.080;4.662;2024-02-26T12:01:56;7.33;77.05
78315;SHT31;68596;52.080;4.662;2024-02-26T12:04:41;7.32;76.82
78315;SHT31;68596;52.080;4.662;2024-02-26T12:07:26;7.32;77.07
78315;SHT31;68596;52.080;4.662;2024-02-26T12:10:32;7.36;76.76
78315;SHT31;68596;52.080;4.662;2024-02-26T12:13:30;7.40;77.11
78315;SHT31;68596;52.080;4.662;2024-02-26T12:16:35;7.46;76.23
78315;SHT31;68596;52.080;4.662;2024-02-26T12:19:21;7.43;76.46
78315;SHT31;68596;52.080;4.662;2024-02-26T12:22:07;7.46;76.71
78315;SHT31;68596;52.080;4.662;2024-02-26T12:25:01;7.40;76.40
78315;SHT31;68596;52.080;4.662;2024-02-26T12:27:47;7.42;76.35
78315;SHT31;68596;52.080;4.662;2024-02-26T12:30:31;7.40;76.65
78315;SHT31;68596;52.080;4.662;2024-02-26T12:33:15;7.43;76.63
78315;SHT31;68596;52.080;4.662;2024-02-26T12:35:59;7.49;76.24
78315;SHT31;68596;52.080;4.662;2024-02-26T12:38:43;7.48;76.47
78315;SHT31;68596;52.080;4.662;2024-02-26T12:41:28;7.52;76.37
78315;SHT31;68596;52.080;4.662;2024-02-26T12:44:14;7.53;76.48
78315;SHT31;68596;52.080;4.662;2024-02-26T12:47:04;7.58;76.22
78315;SHT31;68596;52.080;4.662;2024-02-26T12:49:49;7.62;76.06
78315;SHT31;68596;52.080;4.662;2024-02-26T12:52:40;7.62;76.28
78315;SHT31;68596;52.080;4.662;2024-02-26T12:55:26;7.65;75.69
78315;SHT31;68596;52.080;4.662;2024-02-26T12:58:12;7.71;75.79
78315;SHT31;68596;52.080;4.662;2024-02-26T13:00:58;7.70;75.46
78315;SHT31;68596;52.080;4.662;2024-02-26T13:03:43;7.74;75.66
78315;SHT31;68596;52.080;4.662;2024-02-26T13:06:27;7.80;75.22
78315;SHT31;68596;52.080;4.662;2024-02-26T13:09:15;7.83;74.93
78315;SHT31;68596;52.080;4.662;2024-02-26T13:11:59;7.83;74.84
78315;SHT31;68596;52.080;4.662;2024-02-26T13:14:44;7.83;74.75
78315;SHT31;68596;52.080;4.662;2024-02-26T13:17:32;7.84;74.88
78315;SHT31;68596;52.080;4.662;2024-02-26T13:20:30;7.81;74.44
78315;SHT31;68596;52.080;4.662;2024-02-26T13:23:14;7.83;74.68
78315;SHT31;68596;52.080;4.662;2024-02-26T13:25:58;7.86;75.03
78315;SHT31;68596;52.080;4.662;2024-02-26T13:28:42;7.89;74.77
78315;SHT31;68596;52.080;4.662;2024-02-26T13:31:27;7.90;74.97
78315;SHT31;68596;52.080;4.662;2024-02-26T13:34:11;7.97;74.87
78315;SHT31;68596;52.080;4.662;2024-02-26T13:36:55;7.97;74.65
78315;SHT31;68596;52.080;4.662;2024-02-26T13:39:39;8.00;74.73
78315;SHT31;68596;52.080;4.662;2024-02-26T13:42:24;8.00;74.58
78315;SHT31;68596;52.080;4.662;2024-02-26T13:45:09;8.05;74.28
78315;SHT31;68596;52.080;4.662;2024-02-26T13:48:02;8.05;74.33
78315;SHT31;68596;52.080;4.662;2024-02-26T13:50:47;8.10;74.39
78315;SHT31;68596;52.080;4.662;2024-02-26T13:53:31;8.11;74.03
78315;SHT31;68596;52.080;4.662;2024-02-26T13:56:15;8.13;73.47
78315;SHT31;68596;52.080;4.662;2024-02-26T13:58:59;8.07;73.28
78315;SHT31;68596;52.080;4.662;2024-02-26T14:01:43;8.05;73.91
78315;SHT31;68596;52.080;4.662;2024-02-26T14:04:27;8.11;73.93
78315;SHT31;68596;52.080;4.662;2024-02-26T14:07:12;8.13;73.43
78315;SHT31;68596;52.080;4.662;2024-02-26T14:09:56;8.14;73.85
78315;SHT31;68596;52.080;4.662;2024-02-26T14:12:41;8.15;73.94
78315;SHT31;68596;52.080;4.662;2024-02-26T14:15:25;8.18;74.25
78315;SHT31;68596;52.080;4.662;2024-02-26T14:18:09;8.17;73.77
78315;SHT31;68596;52.080;4.662;2024-02-26T14:20:53;8.17;73.97
78315;SHT31;68596;52.080;4.662;2024-02-26T14:23:39;8.18;73.93
78315;SHT31;68596;52.080;4.662;2024-02-26T14:26:23;8.21;73.59
78315;SHT31;68596;52.080;4.662;2024-02-26T14:29:08;8.24;73.84
78315;SHT31;68596;52.080;4.662;2024-02-26T14:31:52;8.24;73.51
78315;SHT31;68596;52.080;4.662;2024-02-26T14:34:36;8.20;73.68
78315;SHT31;68596;52.080;4.662;2024-02-26T14:37:21;8.23;73.80
78315;SHT31;68596;52.080;4.662;2024-02-26T14:40:06;8.27;73.06
78315;SHT31;68596;52.080;4.662;2024-02-26T14:42:50;8.27;73.42
78315;SHT31;68596;52.080;4.662;2024-02-26T14:45:35;8.17;72.83
78315;SHT31;68596;52.080;4.662;2024-02-26T14:48:19;8.20;73.48
78315;SHT31;68596;52.080;4.662;2024-02-26T14:51:03;8.18;73.45
78315;SHT31;68596;52.080;4.662;2024-02-26T14:53:50;8.20;73.31
78315;SHT31;68596;52.080;4.662;2024-02-26T14:56:34;8.23;73.42
78315;SHT31;68596;52.080;4.662;2024-02-26T14:59:18;8.30;73.39
78315;SHT31;68596;52.080;4.662;2024-02-26T15:02:02;8.31;73.04
78315;SHT31;68596;52.080;4.662;2024-02-26T15:04:47;8.33;72.95
78315;SHT31;68596;52.080;4.662;2024-02-26T15:07:32;8.30;72.54
78315;SHT31;68596;52.080;4.662;2024-02-26T15:10:16;8.27;72.90
78315;SHT31;68596;52.080;4.662;2024-02-26T15:13:00;8.25;72.29
78315;SHT31;68596;52.080;4.662;2024-02-26T15:15:44;8.24;72.37
78315;SHT31;68596;52.080;4.662;2024-02-26T15:18:28;8.18;72.50
78315;SHT31;68596;52.080;4.662;2024-02-26T15:21:12;8.13;72.64
78315;SHT31;68596;52.080;4.662;2024-02-26T15:23:57;8.14;72.66
78315;SHT31;68596;52.080;4.662;2024-02-26T15:26:41;8.07;72.47
78315;SHT31;68596;52.080;4.662;2024-02-26T15:29:25;8.04;72.48
78315;SHT31;68596;52.080;4.662;2024-02-26T15:32:10;7.97;72.47
78315;SHT31;68596;52.080;4.662;2024-02-26T15:34:57;7.95;72.61
78315;SHT31;68596;52.080;4.662;2024-02-26T15:37:44;7.97;72.72
78315;SHT31;68596;52.080;4.662;2024-02-26T15:40:27;7.93;73.21
78315;SHT31;68596;52.080;4.662;2024-02-26T15:43:12;7.95;72.97
78315;SHT31;68596;52.080;4.662;2024-02-26T15:45:56;8.01;72.96
78315;SHT31;68596;52.080;4.662;2024-02-26T15:48:40;8.04;72.69
78315;SHT31;68596;52.080;4.662;2024-02-26T15:51:25;8.03;72.66
78315;SHT31;68596;52.080;4.662;2024-02-26T15:54:09;8.00;72.90
78315;SHT31;68596;52.080;4.662;2024-02-26T15:56:54;8.00;72.94
78315;SHT31;68596;52.080;4.662;2024-02-26T15:59:38;8.00;72.83
78315;SHT31;68596;52.080;4.662;2024-02-26T16:02:22;7.97;72.73
78315;SHT31;68596;52.080;4.662;2024-02-26T16:05:08;7.93;73.03
78315;SHT31;68596;52.080;4.662;2024-02-26T16:07:56;7.90;73.32
78315;SHT31;68596;52.080;4.662;2024-02-26T16:10:41;7.91;73.03
78315;SHT31;68596;52.080;4.662;2024-02-26T16:13:25;7.91;73.07
78315;SHT31;68596;52.080;4.662;2024-02-26T16:16:19;7.94;73.66
78315;SHT31;68596;52.080;4.662;2024-02-26T16:19:15;7.95;73.14
78315;SHT31;68596;52.080;4.662;2024-02-26T16:22:01;7.95;73.14
78315;SHT31;68596;52.080;4.662;2024-02-26T16:24:45;7.91;73.26
78315;SHT31;68596;52.080;4.662;2024-02-26T16:27:29;7.90;73.05
78315;SHT31;68596;52.080;4.662;2024-02-26T16:30:14;7.90;72.98
78315;SHT31;68596;52.080;4.662;2024-02-26T16:32:58;7.93;73.28
78315;SHT31;68596;52.080;4.662;2024-02-26T16:35:43;8.00;73.08
78315;SHT31;68596;52.080;4.662;2024-02-26T16:38:28;7.97;72.88
78315;SHT31;68596;52.080;4.662;2024-02-26T16:41:12;7.90;72.60
78315;SHT31;68596;52.080;4.662;2024-02-26T16:43:56;7.83;72.46
78315;SHT31;68596;52.080;4.662;2024-02-26T16:46:40;7.79;72.25
78315;SHT31;68596;52.080;4.662;2024-02-26T16:49:25;7.71;72.60
78315;SHT31;68596;52.080;4.662;2024-02-26T16:52:11;7.69;72.26
78315;SHT31;68596;52.080;4.662;2024-02-26T16:54:55;7.63;72.48
78315;SHT31;68596;52.080;4.662;2024-02-26T16:57:39;7.63;72.63
78315;SHT31;68596;52.080;4.662;2024-02-26T17:00:26;7.58;72.68
78315;SHT31;68596;52.080;4.662;2024-02-26T17:03:10;7.58;72.95
78315;SHT31;68596;52.080;4.662;2024-02-26T17:05:54;7.56;73.10
78315;SHT31;68596;52.080;4.662;2024-02-26T17:08:39;7.56;73.14
78315;SHT31;68596;52.080;4.662;2024-02-26T17:11:23;7.58;73.14
78315;SHT31;68596;52.080;4.662;2024-02-26T17:14:08;7.58;73.07
78315;SHT31;68596;52.080;4.662;2024-02-26T17:16:52;7.62;72.81
78315;SHT31;68596;52.080;4.662;2024-02-26T17:19:36;7.55;72.78
78315;SHT31;68596;52.080;4.662;2024-02-26T17:22:20;7.50;72.64
78315;SHT31;68596;52.080;4.662;2024-02-26T17:25:05;7.46;72.54
78315;SHT31;68596;52.080;4.662;2024-02-26T17:27:49;7.45;72.52
78315;SHT31;68596;52.080;4.662;2024-02-26T17:30:33;7.42;72.92
78315;SHT31;68596;52.080;4.662;2024-02-26T17:33:17;7.42;73.01
78315;SHT31;68596;52.080;4.662;2024-02-26T17:36:01;7.48;72.96
78315;SHT31;68596;52.080;4.662;2024-02-26T17:38:46;7.53;72.58
78315;SHT31;68596;52.080;4.662;2024-02-26T17:41:31;7.53;72.75